Terminal Aerodrome Forecast
Issued by NWS

Home | Current Version | Previous Version | Graphics & Text | Print | Product List | Glossary On
Versions: 1 2 3 4 5 6 7 8 9 10 11 12 13 14 15 16
000
FTUS43 KFGF 172341 RRA
TAFBJI
TAF
KBJI 172341Z 1800/1824 10012KT P6SM VCSH BKN100
     FM181100 14010KT P6SM BKN200 WS020/19040KT
     FM182000 17012KT P6SM VCSH BKN110=

USA.gov is the U.S. government's official web portal to all federal, state and local government web resources and services.